Time;durP1;ratioP1;P1;durP2;ratioP2;P2;SDS_P1;SDS_P2;PMS_P1;PMS_P2;Temp;Humidity;BMP_temperature;BMP_pressure;BME280_temperature;BME280_humidity;BME280_pressure;Samples;Min_cycle;Max_cycle;Signal;HPM_P1;HPM_P2
2024/01/20 00:01:49;;;;;;;51.17;19.90;;;;;;;;;;4995136;28;20025;-59
2024/01/20 00:04:15;;;;;;;43.85;18.30;;;;;;;;;;4996623;28;22855;-59
2024/01/20 00:06:40;;;;;;;49.03;18.02;;;;;;;;;;4997379;28;20030;-58
2024/01/20 00:09:05;;;;;;;42.03;16.40;;;;;;;;;;4990535;28;20026;-59
2024/01/20 00:11:30;;;;;;;42.92;17.40;;;;;;;;;;4989519;28;20057;-58
2024/01/20 00:13:55;;;;;;;39.50;17.38;;;;;;;;;;4999107;28;20014;-58
2024/01/20 00:16:21;;;;;;;42.83;17.63;;;;;;;;;;4991432;28;20033;-60
2024/01/20 00:18:46;;;;;;;41.70;16.40;;;;;;;;;;4993921;28;20760;-60
2024/01/20 00:21:11;;;;;;;43.17;18.15;;;;;;;;;;4984508;28;20325;-59
2024/01/20 00:23:37;;;;;;;42.17;16.27;;;;;;;;;;5001106;28;20587;-59
2024/01/20 00:26:02;;;;;;;43.83;17.67;;;;;;;;;;4979772;28;20022;-60
2024/01/20 00:28:28;;;;;;;37.88;15.23;;;;;;;;;;4988755;28;20054;-60
2024/01/20 00:30:53;;;;;;;41.85;18.65;;;;;;;;;;4996856;28;20519;-60
2024/01/20 00:33:18;;;;;;;41.57;15.53;;;;;;;;;;4981930;28;20022;-60
2024/01/20 00:35:44;;;;;;;45.15;16.45;;;;;;;;;;4983672;28;20311;-59
2024/01/20 00:38:09;;;;;;;39.47;14.90;;;;;;;;;;4998232;28;20037;-61
2024/01/20 00:40:35;;;;;;;40.05;16.23;;;;;;;;;;4999440;28;20018;-60
2024/01/20 00:43:00;;;;;;;41.20;16.40;;;;;;;;;;4997076;28;20124;-61
2024/01/20 00:45:25;;;;;;;38.05;15.00;;;;;;;;;;4983382;28;20021;-61
2024/01/20 00:47:50;;;;;;;39.70;16.97;;;;;;;;;;4990588;28;20026;-61
2024/01/20 00:50:15;;;;;;;42.60;16.20;;;;;;;;;;4986665;28;20316;-61
2024/01/20 00:52:40;;;;;;;42.20;16.23;;;;;;;;;;5000729;28;20303;-60
2024/01/20 00:55:06;;;;;;;38.55;14.25;;;;;;;;;;4996127;28;20026;-61
2024/01/20 00:57:31;;;;;;;41.55;15.88;;;;;;;;;;4999444;28;20069;-61
2024/01/20 00:59:56;;;;;;;38.23;14.70;;;;;;;;;;4998669;28;20492;-60
2024/01/20 01:02:23;;;;;;;37.88;15.38;;;;;;;;;;4980414;28;20265;-61
2024/01/20 01:04:49;;;;;;;40.53;15.43;;;;;;;;;;4982379;28;20022;-61
2024/01/20 01:07:14;;;;;;;40.20;13.67;;;;;;;;;;4993183;28;20119;-61
2024/01/20 01:09:39;;;;;;;38.83;15.60;;;;;;;;;;4985401;28;20265;-60
2024/01/20 01:12:04;;;;;;;41.87;16.13;;;;;;;;;;4980549;28;20308;-61
2024/01/20 01:14:29;;;;;;;40.15;14.57;;;;;;;;;;4990985;28;20260;-61
2024/01/20 01:16:55;;;;;;;40.22;15.60;;;;;;;;;;4994073;28;20481;-61
2024/01/20 01:19:20;;;;;;;37.00;14.27;;;;;;;;;;4988732;28;20035;-60
2024/01/20 01:21:45;;;;;;;35.38;12.52;;;;;;;;;;4988597;28;20475;-60
2024/01/20 01:24:10;;;;;;;43.83;15.98;;;;;;;;;;4994281;28;20029;-62
2024/01/20 01:26:36;;;;;;;37.78;13.82;;;;;;;;;;4979595;28;20404;-60
2024/01/20 01:29:01;;;;;;;40.70;15.67;;;;;;;;;;4979447;28;20033;-60
2024/01/20 01:31:26;;;;;;;37.40;13.27;;;;;;;;;;4976573;28;20582;-60
2024/01/20 01:33:51;;;;;;;39.88;14.15;;;;;;;;;;4980522;28;20275;-61
2024/01/20 01:36:17;;;;;;;41.78;14.30;;;;;;;;;;4981828;28;20025;-60
2024/01/20 01:38:42;;;;;;;45.15;16.73;;;;;;;;;;4985623;28;20029;-61
2024/01/20 01:41:07;;;;;;;41.13;15.20;;;;;;;;;;4995369;28;20423;-61
2024/01/20 01:43:33;;;;;;;36.85;14.55;;;;;;;;;;4994477;28;20279;-62
2024/01/20 01:45:58;;;;;;;38.30;13.98;;;;;;;;;;4992532;28;20029;-61
2024/01/20 01:48:23;;;;;;;40.28;15.93;;;;;;;;;;4992850;28;20100;-60
2024/01/20 01:50:49;;;;;;;37.70;14.38;;;;;;;;;;4988657;28;20142;-60
2024/01/20 01:53:15;;;;;;;39.05;15.88;;;;;;;;;;4993485;28;20038;-60
2024/01/20 01:55:40;;;;;;;39.90;14.48;;;;;;;;;;4994223;28;20038;-60
2024/01/20 01:58:06;;;;;;;40.15;15.63;;;;;;;;;;4993565;28;20032;-59
2024/01/20 02:00:31;;;;;;;41.00;14.68;;;;;;;;;;4984090;28;20033;-60
2024/01/20 02:02:56;;;;;;;38.60;15.10;;;;;;;;;;4981802;28;20064;-59
2024/01/20 02:05:22;;;;;;;36.95;14.85;;;;;;;;;;4992090;28;20775;-60
2024/01/20 02:07:47;;;;;;;38.65;16.05;;;;;;;;;;4993947;28;20014;-60
2024/01/20 02:10:14;;;;;;;39.03;14.32;;;;;;;;;;4987043;28;20026;-60
2024/01/20 02:12:40;;;;;;;37.00;13.73;;;;;;;;;;4988997;28;20454;-61
2024/01/20 02:15:06;;;;;;;42.72;15.68;;;;;;;;;;4995676;28;20785;-59
2024/01/20 02:17:31;;;;;;;35.50;13.07;;;;;;;;;;4982293;28;20060;-60
2024/01/20 02:19:56;;;;;;;39.67;15.27;;;;;;;;;;4993902;28;20037;-60
2024/01/20 02:22:21;;;;;;;40.40;15.20;;;;;;;;;;4997430;28;20295;-60
2024/01/20 02:24:49;;;;;;;42.55;15.70;;;;;;;;;;4996344;28;20276;-60
2024/01/20 02:27:18;;;;;;;39.45;14.07;;;;;;;;;;5001303;28;20022;-59
2024/01/20 02:29:44;;;;;;;37.85;14.40;;;;;;;;;;4995585;28;20227;-60
2024/01/20 02:32:09;;;;;;;36.97;13.38;;;;;;;;;;5001997;28;20010;-59
2024/01/20 02:34:34;;;;;;;39.33;14.63;;;;;;;;;;5001033;28;20056;-60
2024/01/20 02:37:00;;;;;;;39.22;15.32;;;;;;;;;;4985346;28;20022;-59
2024/01/20 02:39:25;;;;;;;39.58;15.02;;;;;;;;;;4991375;28;20113;-59
2024/01/20 02:41:50;;;;;;;43.40;16.23;;;;;;;;;;4997048;28;20500;-60
2024/01/20 02:44:16;;;;;;;36.60;14.32;;;;;;;;;;4994370;28;20288;-60
2024/01/20 02:46:41;;;;;;;36.63;13.30;;;;;;;;;;4990252;28;20088;-61
2024/01/20 02:49:07;;;;;;;40.57;15.20;;;;;;;;;;4998813;28;20022;-60
2024/01/20 02:51:32;;;;;;;35.35;13.85;;;;;;;;;;4992672;28;20289;-61
2024/01/20 02:53:58;;;;;;;39.87;14.47;;;;;;;;;;4997095;28;20493;-61
2024/01/20 02:56:24;;;;;;;40.22;15.32;;;;;;;;;;4995672;28;20384;-61
2024/01/20 02:58:49;;;;;;;41.13;16.65;;;;;;;;;;4999658;28;20177;-61
2024/01/20 03:01:15;;;;;;;40.85;14.52;;;;;;;;;;4995829;28;20459;-61
2024/01/20 03:03:40;;;;;;;38.17;14.65;;;;;;;;;;4995106;28;20010;-59
2024/01/20 03:06:05;;;;;;;42.33;15.00;;;;;;;;;;4988759;28;20026;-59
2024/01/20 03:08:30;;;;;;;37.53;13.90;;;;;;;;;;5005750;28;20021;-59
2024/01/20 03:10:55;;;;;;;41.57;16.50;;;;;;;;;;5000464;28;20022;-61
2024/01/20 03:13:20;;;;;;;38.60;14.43;;;;;;;;;;4994554;28;20797;-60
2024/01/20 03:15:46;;;;;;;39.03;13.95;;;;;;;;;;4994052;28;20277;-62
2024/01/20 03:18:11;;;;;;;40.97;15.82;;;;;;;;;;4984172;28;20037;-60
2024/01/20 03:20:36;;;;;;;38.00;14.70;;;;;;;;;;5000333;28;20587;-60
2024/01/20 03:23:01;;;;;;;38.38;13.85;;;;;;;;;;4986286;28;20276;-60
2024/01/20 03:25:26;;;;;;;40.38;14.73;;;;;;;;;;4986061;28;20821;-60
2024/01/20 03:27:54;;;;;;;37.77;13.73;;;;;;;;;;5002808;28;20026;-59
2024/01/20 03:30:20;;;;;;;36.05;13.20;;;;;;;;;;4995118;28;20284;-61
2024/01/20 03:32:46;;;;;;;36.17;12.30;;;;;;;;;;4994434;28;20046;-60
2024/01/20 03:35:11;;;;;;;33.47;13.75;;;;;;;;;;4994954;28;20006;-60
2024/01/20 03:37:36;;;;;;;40.90;14.43;;;;;;;;;;4996473;28;20124;-60
2024/01/20 03:40:02;;;;;;;37.37;13.00;;;;;;;;;;4990484;28;20277;-59
2024/01/20 03:42:28;;;;;;;37.45;14.57;;;;;;;;;;4986089;28;20671;-59
2024/01/20 03:44:53;;;;;;;40.28;15.02;;;;;;;;;;4980751;28;20046;-61
2024/01/20 03:47:19;;;;;;;34.53;13.73;;;;;;;;;;4981837;28;21038;-59
2024/01/20 03:49:44;;;;;;;36.90;14.37;;;;;;;;;;4982186;28;20053;-58
2024/01/20 03:52:09;;;;;;;30.57;11.33;;;;;;;;;;4981070;28;20689;-59
2024/01/20 03:54:34;;;;;;;38.93;16.33;;;;;;;;;;4984444;28;20262;-58
2024/01/20 03:56:59;;;;;;;39.40;14.17;;;;;;;;;;4988432;28;20641;-60
2024/01/20 03:59:24;;;;;;;39.60;14.73;;;;;;;;;;5000694;28;20383;-60
2024/01/20 04:01:50;;;;;;;34.22;13.82;;;;;;;;;;5001555;28;20265;-60
2024/01/20 04:04:15;;;;;;;37.88;14.10;;;;;;;;;;4996947;28;20018;-60
2024/01/20 04:06:40;;;;;;;38.53;15.27;;;;;;;;;;4998223;28;20060;-60
2024/01/20 04:09:05;;;;;;;36.70;13.68;;;;;;;;;;4994062;28;20356;-59
2024/01/20 04:11:30;;;;;;;37.40;13.23;;;;;;;;;;4995405;28;20022;-60
2024/01/20 04:13:56;;;;;;;36.38;14.30;;;;;;;;;;4999159;28;20816;-60
2024/01/20 04:16:21;;;;;;;34.47;13.17;;;;;;;;;;4988934;28;20481;-60
2024/01/20 04:18:46;;;;;;;33.60;13.20;;;;;;;;;;4990645;28;20372;-60
2024/01/20 04:21:11;;;;;;;35.73;13.80;;;;;;;;;;5002062;28;20028;-60
2024/01/20 04:23:36;;;;;;;34.27;13.70;;;;;;;;;;4995312;28;20273;-60
2024/01/20 04:26:01;;;;;;;34.95;12.95;;;;;;;;;;4997160;28;20291;-60
2024/01/20 04:28:27;;;;;;;37.60;15.75;;;;;;;;;;5001298;28;20014;-60
2024/01/20 04:30:53;;;;;;;33.63;13.90;;;;;;;;;;4994691;28;20401;-60
2024/01/20 04:33:18;;;;;;;35.45;13.38;;;;;;;;;;4993193;28;20283;-61
2024/01/20 04:35:43;;;;;;;34.15;12.70;;;;;;;;;;4997506;28;20513;-61
2024/01/20 04:38:08;;;;;;;36.10;13.53;;;;;;;;;;4998618;28;20022;-61
2024/01/20 04:40:33;;;;;;;35.97;13.23;;;;;;;;;;4994520;28;20289;-59
2024/01/20 04:42:59;;;;;;;36.30;14.43;;;;;;;;;;4993092;28;20279;-59
2024/01/20 04:45:24;;;;;;;37.27;13.97;;;;;;;;;;5002437;28;20261;-59
2024/01/20 04:47:49;;;;;;;35.85;13.60;;;;;;;;;;4996556;28;20659;-59
2024/01/20 04:50:14;;;;;;;37.17;13.37;;;;;;;;;;4991070;28;20534;-60
2024/01/20 04:52:39;;;;;;;35.77;13.47;;;;;;;;;;4987274;28;20281;-59
2024/01/20 04:55:05;;;;;;;40.45;15.88;;;;;;;;;;4993329;28;20832;-60
2024/01/20 04:57:30;;;;;;;33.38;12.63;;;;;;;;;;4995498;28;20541;-61
2024/01/20 04:59:55;;;;;;;37.13;14.45;;;;;;;;;;4992743;28;20025;-61
2024/01/20 05:02:20;;;;;;;40.25;14.98;;;;;;;;;;4993352;28;20068;-60
2024/01/20 05:04:45;;;;;;;40.40;17.05;;;;;;;;;;4997419;28;20018;-60
2024/01/20 05:07:11;;;;;;;34.55;13.18;;;;;;;;;;4988793;28;20544;-60
2024/01/20 05:09:36;;;;;;;35.58;13.02;;;;;;;;;;4994862;28;20022;-60
2024/01/20 05:12:01;;;;;;;34.50;12.87;;;;;;;;;;5001407;28;20010;-59
2024/01/20 05:14:26;;;;;;;33.20;12.83;;;;;;;;;;4995372;28;20637;-59
2024/01/20 05:16:51;;;;;;;31.10;12.43;;;;;;;;;;4988336;28;20288;-60
2024/01/20 05:19:16;;;;;;;36.80;13.82;;;;;;;;;;4991674;28;20640;-59
2024/01/20 05:21:42;;;;;;;34.73;13.17;;;;;;;;;;4994708;28;20739;-60
2024/01/20 05:24:07;;;;;;;34.67;13.07;;;;;;;;;;4990340;28;20249;-60
2024/01/20 05:26:32;;;;;;;33.65;12.88;;;;;;;;;;4995284;28;20094;-60
2024/01/20 05:28:57;;;;;;;37.33;14.57;;;;;;;;;;4989135;28;20021;-60
2024/01/20 05:31:31;;;;;;;34.38;12.52;;;;;;;;;;4996971;28;20756;-61
2024/01/20 05:33:56;;;;;;;;;;;;;;;;;;4995611;28;20029;-61
2024/01/20 05:36:21;;;;;;;34.58;11.30;;;;;;;;;;4989846;28;19910;-60
2024/01/20 05:38:46;;;;;;;39.60;13.57;;;;;;;;;;4997850;28;20030;-60
2024/01/20 05:41:11;;;;;;;33.43;12.60;;;;;;;;;;4997346;28;20356;-60
2024/01/20 05:43:36;;;;;;;34.13;12.85;;;;;;;;;;4998768;28;20280;-60
2024/01/20 05:46:05;;;;;;;36.03;13.53;;;;;;;;;;5003479;28;20359;-60
2024/01/20 05:48:31;;;;;;;33.22;12.68;;;;;;;;;;5000828;28;20269;-60
2024/01/20 05:50:56;;;;;;;36.13;13.57;;;;;;;;;;4998417;28;20057;-61
2024/01/20 05:53:21;;;;;;;31.38;10.95;;;;;;;;;;4993566;28;20045;-60
2024/01/20 05:55:46;;;;;;;31.23;11.75;;;;;;;;;;5001974;28;20454;-59
2024/01/20 05:58:11;;;;;;;36.83;13.57;;;;;;;;;;5002632;28;20018;-59
2024/01/20 06:00:37;;;;;;;34.53;13.10;;;;;;;;;;4995864;28;20048;-60
2024/01/20 06:03:02;;;;;;;33.50;13.20;;;;;;;;;;4995100;28;20470;-60
2024/01/20 06:05:27;;;;;;;34.13;13.23;;;;;;;;;;4995768;28;20257;-60
2024/01/20 06:07:52;;;;;;;32.53;11.73;;;;;;;;;;4998434;28;20022;-59
2024/01/20 06:10:17;;;;;;;34.60;13.60;;;;;;;;;;4998587;28;20458;-58
2024/01/20 06:12:43;;;;;;;35.80;13.53;;;;;;;;;;4993483;28;20025;-58
2024/01/20 06:15:09;;;;;;;34.33;13.95;;;;;;;;;;4996820;28;20261;-60
2024/01/20 06:17:34;;;;;;;32.17;13.00;;;;;;;;;;4990789;28;20026;-57
2024/01/20 06:19:59;;;;;;;35.37;12.87;;;;;;;;;;4999167;28;20022;-56
2024/01/20 06:22:24;;;;;;;37.00;13.20;;;;;;;;;;4997766;28;20296;-57
2024/01/20 06:24:50;;;;;;;39.60;14.43;;;;;;;;;;4994787;28;20269;-58
2024/01/20 06:27:15;;;;;;;35.20;13.75;;;;;;;;;;5002833;28;20268;-59
2024/01/20 06:29:41;;;;;;;37.53;14.67;;;;;;;;;;4996099;28;20021;-59
2024/01/20 06:32:06;;;;;;;35.58;12.60;;;;;;;;;;4988912;28;20288;-60
2024/01/20 06:34:31;;;;;;;36.47;13.73;;;;;;;;;;5005017;28;20101;-59
2024/01/20 06:36:56;;;;;;;35.73;13.37;;;;;;;;;;4990750;28;20022;-59
2024/01/20 06:39:22;;;;;;;34.47;13.30;;;;;;;;;;4982615;28;20758;-59
2024/01/20 06:41:47;;;;;;;36.90;13.52;;;;;;;;;;4980401;28;20481;-60
2024/01/20 06:44:13;;;;;;;34.83;14.43;;;;;;;;;;4984245;28;20026;-59
2024/01/20 06:46:38;;;;;;;33.72;13.27;;;;;;;;;;4979093;28;20634;-59
2024/01/20 06:49:03;;;;;;;37.35;13.52;;;;;;;;;;4979614;28;20353;-59
2024/01/20 06:51:29;;;;;;;32.03;12.60;;;;;;;;;;4989680;28;20046;-58
2024/01/20 06:53:57;;;;;;;32.33;12.13;;;;;;;;;;4995702;28;20125;-58
2024/01/20 06:56:22;;;;;;;35.45;13.20;;;;;;;;;;4997829;28;20280;-58
2024/01/20 06:58:47;;;;;;;31.40;11.23;;;;;;;;;;4994537;28;20014;-60
2024/01/20 07:01:13;;;;;;;31.63;12.23;;;;;;;;;;4997535;28;20022;-59
2024/01/20 07:03:38;;;;;;;33.27;13.63;;;;;;;;;;5000744;28;20756;-58
2024/01/20 07:06:03;;;;;;;33.43;12.20;;;;;;;;;;4993639;28;20265;-59
2024/01/20 07:08:28;;;;;;;33.58;12.82;;;;;;;;;;5001400;28;20620;-59
2024/01/20 07:10:53;;;;;;;35.17;13.38;;;;;;;;;;5003626;28;20017;-58
2024/01/20 07:13:19;;;;;;;38.25;14.32;;;;;;;;;;4997056;28;20100;-60
2024/01/20 07:15:44;;;;;;;32.77;12.30;;;;;;;;;;4995156;28;20051;-61
2024/01/20 07:18:09;;;;;;;33.87;12.87;;;;;;;;;;4993730;28;20281;-58
2024/01/20 07:20:34;;;;;;;33.00;12.87;;;;;;;;;;4994894;28;20352;-58
2024/01/20 07:22:59;;;;;;;33.70;12.52;;;;;;;;;;4995710;28;20659;-60
2024/01/20 07:25:25;;;;;;;33.45;11.60;;;;;;;;;;4993623;28;20347;-58
2024/01/20 07:27:50;;;;;;;37.00;15.00;;;;;;;;;;4998270;28;20038;-60
2024/01/20 07:30:15;;;;;;;34.28;13.88;;;;;;;;;;4998028;28;20101;-59
2024/01/20 07:32:40;;;;;;;32.67;12.77;;;;;;;;;;4996663;28;20055;-59
2024/01/20 07:35:07;;;;;;;31.55;12.18;;;;;;;;;;4984332;28;20467;-59
2024/01/20 07:37:35;;;;;;;31.30;12.27;;;;;;;;;;4985938;28;20095;-59
2024/01/20 07:40:01;;;;;;;30.98;11.77;;;;;;;;;;4981071;28;20022;-57
2024/01/20 07:42:26;;;;;;;34.40;12.85;;;;;;;;;;4984613;28;20034;-60
2024/01/20 07:44:51;;;;;;;32.20;11.87;;;;;;;;;;4988170;28;20030;-59
2024/01/20 07:47:17;;;;;;;33.55;14.32;;;;;;;;;;4982073;28;20283;-59
2024/01/20 07:49:42;;;;;;;34.53;13.00;;;;;;;;;;4983054;28;20222;-59
2024/01/20 07:52:07;;;;;;;31.97;11.97;;;;;;;;;;4985713;28;20030;-60
2024/01/20 07:54:33;;;;;;;32.40;13.55;;;;;;;;;;4985243;28;20380;-59
2024/01/20 07:56:58;;;;;;;36.63;13.48;;;;;;;;;;4983753;28;20022;-60
2024/01/20 07:59:23;;;;;;;33.20;12.18;;;;;;;;;;4984745;28;20081;-60
2024/01/20 08:01:48;;;;;;;33.05;13.18;;;;;;;;;;4981453;28;20017;-60
2024/01/20 08:04:14;;;;;;;36.88;13.73;;;;;;;;;;4984013;28;20042;-61
2024/01/20 08:06:39;;;;;;;34.85;12.38;;;;;;;;;;4991826;28;20070;-60
2024/01/20 08:09:04;;;;;;;32.33;12.57;;;;;;;;;;4989664;28;20058;-61
2024/01/20 08:11:29;;;;;;;31.35;12.27;;;;;;;;;;5004060;28;20308;-60
2024/01/20 08:13:55;;;;;;;34.25;15.35;;;;;;;;;;4995224;28;20034;-60
2024/01/20 08:16:20;;;;;;;35.53;14.43;;;;;;;;;;5003113;28;20037;-60
2024/01/20 08:18:45;;;;;;;35.30;15.02;;;;;;;;;;5005670;28;20355;-60
2024/01/20 08:21:11;;;;;;;36.50;14.18;;;;;;;;;;4990810;28;20101;-60
2024/01/20 08:23:36;;;;;;;36.40;13.20;;;;;;;;;;5003108;28;20026;-60
2024/01/20 08:26:01;;;;;;;32.77;13.03;;;;;;;;;;4999719;28;20314;-61
2024/01/20 08:28:26;;;;;;;35.15;13.45;;;;;;;;;;4982535;28;20265;-60
2024/01/20 08:30:51;;;;;;;36.03;14.17;;;;;;;;;;4981099;28;20061;-60
2024/01/20 08:33:17;;;;;;;30.90;12.07;;;;;;;;;;4984033;28;20772;-60
2024/01/20 08:35:42;;;;;;;33.13;12.93;;;;;;;;;;4981305;28;20281;-60
2024/01/20 08:38:07;;;;;;;31.02;11.88;;;;;;;;;;4984309;28;20428;-59
2024/01/20 08:40:32;;;;;;;35.07;13.67;;;;;;;;;;4976429;28;20124;-58
2024/01/20 08:42:57;;;;;;;31.95;11.88;;;;;;;;;;4979377;28;20269;-58
2024/01/20 08:45:23;;;;;;;33.38;13.23;;;;;;;;;;4977419;28;20022;-58
2024/01/20 08:47:48;;;;;;;34.07;13.37;;;;;;;;;;4981489;28;20101;-62
2024/01/20 08:50:14;;;;;;;31.88;12.82;;;;;;;;;;4979797;28;20292;-64
2024/01/20 08:52:39;;;;;;;32.40;12.82;;;;;;;;;;4981148;28;20393;-60
2024/01/20 08:55:05;;;;;;;33.17;13.38;;;;;;;;;;4982706;28;20449;-60
2024/01/20 08:57:31;;;;;;;37.78;14.32;;;;;;;;;;4977982;28;20030;-59
2024/01/20 08:59:56;;;;;;;35.55;13.32;;;;;;;;;;4980586;28;20359;-59
2024/01/20 09:02:22;;;;;;;31.85;12.35;;;;;;;;;;4981768;28;20041;-59
2024/01/20 09:04:47;;;;;;;33.55;13.35;;;;;;;;;;4979579;28;20454;-59
2024/01/20 09:07:12;;;;;;;34.00;12.50;;;;;;;;;;4978633;28;21176;-59
2024/01/20 09:09:37;;;;;;;36.30;14.00;;;;;;;;;;4979359;28;20380;-60
2024/01/20 09:12:03;;;;;;;31.77;11.93;;;;;;;;;;4986427;28;20097;-59
2024/01/20 09:14:28;;;;;;;34.08;13.55;;;;;;;;;;4998324;28;20266;-59
2024/01/20 09:16:53;;;;;;;31.00;11.67;;;;;;;;;;5011051;28;20517;-60
2024/01/20 09:19:18;;;;;;;33.53;11.67;;;;;;;;;;4985991;28;20353;-60
2024/01/20 09:21:44;;;;;;;33.50;12.60;;;;;;;;;;4999789;28;20757;-60
2024/01/20 09:24:10;;;;;;;31.85;12.68;;;;;;;;;;5002140;28;20432;-59
2024/01/20 09:26:35;;;;;;;30.13;12.13;;;;;;;;;;5008171;28;20026;-59
2024/01/20 09:29:00;;;;;;;34.80;14.27;;;;;;;;;;4987012;28;20018;-60
2024/01/20 09:31:25;;;;;;;34.55;14.00;;;;;;;;;;4981018;28;20403;-60
2024/01/20 09:33:51;;;;;;;35.97;13.50;;;;;;;;;;4976104;28;20033;-60
2024/01/20 09:36:16;;;;;;;29.75;10.93;;;;;;;;;;4983224;28;20484;-60
2024/01/20 09:38:41;;;;;;;34.23;14.67;;;;;;;;;;4980412;28;20509;-60
2024/01/20 09:41:09;;;;;;;33.40;13.83;;;;;;;;;;4981197;28;20273;-59
2024/01/20 09:43:36;;;;;;;35.35;14.50;;;;;;;;;;4978743;28;20269;-59
2024/01/20 09:46:01;;;;;;;35.17;13.50;;;;;;;;;;4981575;28;20144;-63
2024/01/20 09:48:26;;;;;;;38.03;15.10;;;;;;;;;;4989151;28;20576;-60
2024/01/20 09:50:51;;;;;;;35.30;13.73;;;;;;;;;;4989846;28;20300;-59
2024/01/20 09:53:17;;;;;;;30.77;11.03;;;;;;;;;;4996912;28;20716;-60
2024/01/20 09:55:43;;;;;;;31.00;12.23;;;;;;;;;;4988554;28;20277;-60
2024/01/20 09:58:15;;;;;;;32.90;13.60;;;;;;;;;;4992693;28;20030;-60
2024/01/20 10:00:41;;;;;;;31.45;12.60;;;;;;;;;;4993566;28;20473;-59
2024/01/20 10:03:08;;;;;;;34.08;12.75;;;;;;;;;;5001654;28;20232;-58
2024/01/20 10:05:34;;;;;;;33.88;12.88;;;;;;;;;;4990427;28;20022;-61
2024/01/20 10:07:59;;;;;;;31.23;11.90;;;;;;;;;;4991355;28;20068;-59
2024/01/20 10:10:24;;;;;;;31.55;14.07;;;;;;;;;;5002961;28;20026;-60
2024/01/20 10:12:50;;;;;;;32.35;13.10;;;;;;;;;;5003721;28;20427;-61
2024/01/20 10:15:19;;;;;;;32.65;13.10;;;;;;;;;;5008252;28;20026;-61
2024/01/20 10:17:44;;;;;;;33.00;13.15;;;;;;;;;;5005631;28;20113;-61
2024/01/20 10:20:17;;;;;;;33.73;12.83;;;;;;;;;;4995154;28;20165;-60
2024/01/20 10:22:42;;;;;;;30.50;11.23;;;;;;;;;;4989115;28;20280;-60
2024/01/20 10:25:07;;;;;;;29.77;10.83;;;;;;;;;;4991860;28;20022;-60
2024/01/20 10:27:32;;;;;;;32.13;13.30;;;;;;;;;;4980229;28;20765;-59
2024/01/20 10:29:58;;;;;;;32.17;12.97;;;;;;;;;;5002395;28;20362;-60
2024/01/20 10:32:24;;;;;;;32.60;12.33;;;;;;;;;;4998776;28;20638;-60
2024/01/20 10:34:49;;;;;;;35.88;14.15;;;;;;;;;;4994351;28;20305;-59
2024/01/20 10:37:14;;;;;;;33.25;13.18;;;;;;;;;;5004810;28;20099;-60
2024/01/20 10:39:41;;;;;;;37.10;14.47;;;;;;;;;;5005648;28;20030;-60
2024/01/20 10:42:08;;;;;;;35.00;13.18;;;;;;;;;;5010063;28;20277;-59
2024/01/20 10:44:36;;;;;;;32.60;12.80;;;;;;;;;;5004190;28;20022;-60
2024/01/20 10:47:04;;;;;;;34.90;13.93;;;;;;;;;;5009379;28;20060;-60
2024/01/20 10:49:29;;;;;;;31.27;13.02;;;;;;;;;;4988645;28;20501;-60
2024/01/20 10:51:56;;;;;;;33.73;13.13;;;;;;;;;;4984834;28;20034;-62
2024/01/20 10:54:22;;;;;;;30.50;10.25;;;;;;;;;;4983967;28;20863;-60
2024/01/20 10:56:47;;;;;;;30.40;14.32;;;;;;;;;;4989480;28;20029;-59
2024/01/20 10:59:14;;;;;;;31.80;12.83;;;;;;;;;;4984712;28;20565;-60
2024/01/20 11:01:40;;;;;;;30.42;12.13;;;;;;;;;;4985372;28;20272;-60
2024/01/20 11:04:06;;;;;;;31.95;12.02;;;;;;;;;;4985133;28;20049;-59
2024/01/20 11:06:31;;;;;;;30.65;12.57;;;;;;;;;;4985828;28;20061;-59
2024/01/20 11:08:59;;;;;;;33.88;14.65;;;;;;;;;;4981334;28;20038;-60
2024/01/20 11:11:28;;;;;;;31.58;13.52;;;;;;;;;;4983085;28;20034;-61
2024/01/20 11:13:57;;;;;;;32.38;12.02;;;;;;;;;;4996993;28;20073;-61
2024/01/20 11:16:22;;;;;;;32.25;12.82;;;;;;;;;;5003967;28;20034;-59
2024/01/20 11:18:47;;;;;;;31.33;13.55;;;;;;;;;;5001166;28;20068;-60
2024/01/20 11:21:16;;;;;;;34.65;13.48;;;;;;;;;;4989567;28;20025;-60
2024/01/20 11:23:46;;;;;;;30.13;12.25;;;;;;;;;;5001631;28;20033;-61
2024/01/20 11:26:12;;;;;;;31.63;12.65;;;;;;;;;;5002471;28;20034;-60
2024/01/20 11:28:40;;;;;;;30.95;12.23;;;;;;;;;;5002471;28;20028;-60
2024/01/20 11:31:05;;;;;;;34.53;12.40;;;;;;;;;;5004416;28;20028;-60
2024/01/20 11:33:30;;;;;;;30.77;11.25;;;;;;;;;;5004939;28;20081;-59
2024/01/20 11:35:56;;;;;;;33.33;12.80;;;;;;;;;;4995049;28;20023;-59
2024/01/20 11:38:21;;;;;;;31.10;12.40;;;;;;;;;;5004064;28;20655;-60
2024/01/20 11:41:02;;;;;;;32.22;13.48;;;;;;;;;;4997267;28;20044;-60
2024/01/20 11:43:27;;;;;;;30.63;11.52;;;;;;;;;;4987146;28;20034;-59
2024/01/20 11:45:52;;;;;;;31.92;11.75;;;;;;;;;;4985399;28;20018;-61
2024/01/20 11:48:21;;;;;;;31.40;10.82;;;;;;;;;;4988266;28;20071;-60
2024/01/20 11:50:46;;;;;;;31.35;12.27;;;;;;;;;;4985560;28;20045;-60
2024/01/20 11:53:11;;;;;;;30.73;12.13;;;;;;;;;;4985609;28;20501;-60
2024/01/20 11:55:36;;;;;;;32.72;12.90;;;;;;;;;;4981731;28;20470;-59
2024/01/20 11:58:02;;;;;;;30.67;11.97;;;;;;;;;;4983297;28;20164;-58
2024/01/20 12:00:27;;;;;;;32.63;13.30;;;;;;;;;;4984115;28;20277;-59
2024/01/20 12:02:52;;;;;;;36.78;15.45;;;;;;;;;;4984665;28;20366;-59
2024/01/20 12:05:17;;;;;;;38.40;15.93;;;;;;;;;;4986305;28;20373;-59
2024/01/20 12:07:43;;;;;;;39.67;17.65;;;;;;;;;;4986839;28;20042;-59
2024/01/20 12:10:08;;;;;;;40.40;18.60;;;;;;;;;;4980063;28;20132;-59
2024/01/20 12:12:33;;;;;;;37.45;16.23;;;;;;;;;;4983032;28;20113;-61
2024/01/20 12:14:58;;;;;;;36.78;16.13;;;;;;;;;;4987277;28;20034;-60
2024/01/20 12:17:24;;;;;;;36.58;15.45;;;;;;;;;;4983838;28;20018;-60
2024/01/20 12:19:49;;;;;;;35.72;15.57;;;;;;;;;;4981993;28;20030;-60
2024/01/20 12:22:15;;;;;;;35.45;14.55;;;;;;;;;;4982477;28;20022;-59
2024/01/20 12:24:46;;;;;;;34.78;14.60;;;;;;;;;;4985911;28;20029;-61
2024/01/20 12:27:12;;;;;;;34.85;15.40;;;;;;;;;;4983665;28;20042;-60
2024/01/20 12:29:37;;;;;;;34.22;13.50;;;;;;;;;;4983892;28;20015;-59
2024/01/20 12:32:03;;;;;;;37.07;15.40;;;;;;;;;;4994546;28;20026;-60
2024/01/20 12:34:28;;;;;;;35.30;13.80;;;;;;;;;;4988828;28;20304;-60
2024/01/20 12:36:53;;;;;;;35.95;14.98;;;;;;;;;;4984416;28;20100;-59
2024/01/20 12:39:19;;;;;;;35.08;16.00;;;;;;;;;;4992627;28;20085;-60
2024/01/20 12:41:44;;;;;;;32.25;12.93;;;;;;;;;;4995567;28;20027;-59
2024/01/20 12:44:09;;;;;;;33.10;14.47;;;;;;;;;;4993909;28;20018;-61
2024/01/20 12:46:35;;;;;;;31.10;13.20;;;;;;;;;;4994024;28;20276;-59
2024/01/20 12:49:00;;;;;;;32.92;13.20;;;;;;;;;;4990426;28;20285;-60
2024/01/20 12:51:26;;;;;;;29.95;12.85;;;;;;;;;;4981110;28;20086;-60
2024/01/20 12:53:51;;;;;;;34.95;13.73;;;;;;;;;;4985643;28;20026;-61
2024/01/20 12:56:17;;;;;;;31.88;12.85;;;;;;;;;;4982993;28;20029;-58
2024/01/20 12:58:42;;;;;;;31.27;12.93;;;;;;;;;;4987041;28;20034;-61
2024/01/20 13:01:07;;;;;;;30.60;13.48;;;;;;;;;;4991241;28;20026;-59
2024/01/20 13:03:32;;;;;;;30.73;12.60;;;;;;;;;;4991825;28;20025;-59
2024/01/20 13:05:58;;;;;;;28.27;11.15;;;;;;;;;;4983237;28;20356;-59
2024/01/20 13:08:23;;;;;;;29.33;11.20;;;;;;;;;;4992879;28;20367;-62
2024/01/20 13:10:50;;;;;;;26.27;10.43;;;;;;;;;;4993946;28;20268;-60
2024/01/20 13:13:15;;;;;;;29.58;11.65;;;;;;;;;;4998267;28;20258;-61
2024/01/20 13:15:40;;;;;;;28.77;11.38;;;;;;;;;;4993947;28;20041;-59
2024/01/20 13:18:05;;;;;;;27.80;10.03;;;;;;;;;;4990027;28;20490;-60
2024/01/20 13:20:31;;;;;;;30.27;11.68;;;;;;;;;;4986667;28;20303;-59
2024/01/20 13:22:56;;;;;;;27.83;10.83;;;;;;;;;;4991725;28;20105;-60
2024/01/20 13:25:21;;;;;;;32.83;12.45;;;;;;;;;;4987553;28;20274;-61
2024/01/20 13:27:46;;;;;;;30.92;12.48;;;;;;;;;;4988540;28;20026;-59
2024/01/20 13:30:12;;;;;;;30.47;11.80;;;;;;;;;;4990885;28;20096;-60
2024/01/20 13:32:37;;;;;;;30.50;12.10;;;;;;;;;;4993182;28;20276;-59
2024/01/20 13:35:03;;;;;;;29.98;12.20;;;;;;;;;;4991417;28;20098;-61
2024/01/20 13:37:28;;;;;;;28.58;10.30;;;;;;;;;;4978546;28;20085;-60
2024/01/20 13:39:53;;;;;;;27.52;9.48;;;;;;;;;;4976660;28;20064;-59
2024/01/20 13:42:18;;;;;;;26.40;10.27;;;;;;;;;;4983378;28;20457;-60
2024/01/20 13:44:43;;;;;;;24.93;9.63;;;;;;;;;;4978102;28;20490;-60
2024/01/20 13:47:09;;;;;;;25.63;8.77;;;;;;;;;;4979531;28;20269;-61
2024/01/20 13:49:34;;;;;;;27.15;10.27;;;;;;;;;;4977341;28;20807;-60
2024/01/20 13:52:00;;;;;;;28.35;10.43;;;;;;;;;;4981435;28;20558;-59
2024/01/20 13:54:25;;;;;;;28.73;10.77;;;;;;;;;;4979823;28;20032;-59
2024/01/20 13:56:50;;;;;;;28.85;10.60;;;;;;;;;;4978064;28;20137;-60
2024/01/20 13:59:16;;;;;;;29.20;11.35;;;;;;;;;;4974466;28;20044;-60
2024/01/20 14:01:42;;;;;;;28.98;11.57;;;;;;;;;;4979842;28;20030;-59
2024/01/20 14:04:07;;;;;;;28.48;10.63;;;;;;;;;;4978869;28;20029;-61
2024/01/20 14:06:32;;;;;;;27.15;9.68;;;;;;;;;;4977019;28;20373;-59
2024/01/20 14:08:58;;;;;;;26.57;9.97;;;;;;;;;;4977605;28;20732;-60